sensor_id;sensor_type;location;lat;lon;timestamp;P1;durP1;ratioP1;P2;durP2;ratioP2
46755;SDS011;32506;52.826;-1.192;2022-08-05T00:01:17;1.98;;;0.60;;
46755;SDS011;32506;52.826;-1.192;2022-08-05T00:03:44;1.77;;;0.65;;
46755;SDS011;32506;52.826;-1.192;2022-08-05T00:06:11;1.38;;;0.50;;
46755;SDS011;32506;52.826;-1.192;2022-08-05T00:08:37;1.75;;;0.70;;
46755;SDS011;32506;52.826;-1.192;2022-08-05T00:11:05;2.90;;;0.55;;
46755;SDS011;32506;52.826;-1.192;2022-08-05T00:13:33;1.50;;;0.57;;
46755;SDS011;32506;52.826;-1.192;2022-08-05T00:16:00;1.00;;;0.40;;
46755;SDS011;32506;52.826;-1.192;2022-08-05T00:18:26;2.33;;;0.30;;
46755;SDS011;32506;52.826;-1.192;2022-08-05T00:20:52;1.10;;;0.43;;
46755;SDS011;32506;52.826;-1.192;2022-08-05T00:23:18;2.00;;;0.95;;
46755;SDS011;32506;52.826;-1.192;2022-08-05T00:25:44;2.10;;;0.45;;
46755;SDS011;32506;52.826;-1.192;2022-08-05T00:28:09;1.90;;;0.40;;
46755;SDS011;32506;52.826;-1.192;2022-08-05T00:30:35;2.95;;;0.30;;
46755;SDS011;32506;52.826;-1.192;2022-08-05T00:33:01;2.30;;;0.38;;
46755;SDS011;32506;52.826;-1.192;2022-08-05T00:35:26;3.60;;;1.00;;
46755;SDS011;32506;52.826;-1.192;2022-08-05T00:37:52;1.98;;;0.50;;
46755;SDS011;32506;52.826;-1.192;2022-08-05T00:40:18;1.35;;;0.40;;
46755;SDS011;32506;52.826;-1.192;2022-08-05T00:42:45;3.30;;;0.40;;
46755;SDS011;32506;52.826;-1.192;2022-08-05T00:45:11;1.70;;;0.25;;
46755;SDS011;32506;52.826;-1.192;2022-08-05T00:47:36;1.35;;;0.30;;
46755;SDS011;32506;52.826;-1.192;2022-08-05T00:50:02;1.42;;;0.35;;
46755;SDS011;32506;52.826;-1.192;2022-08-05T00:52:28;2.20;;;0.40;;
46755;SDS011;32506;52.826;-1.192;2022-08-05T00:54:55;2.95;;;0.50;;
46755;SDS011;32506;52.826;-1.192;2022-08-05T00:57:20;0.85;;;0.35;;
46755;SDS011;32506;52.826;-1.192;2022-08-05T00:59:46;1.75;;;0.40;;
46755;SDS011;32506;52.826;-1.192;2022-08-05T01:02:12;2.55;;;0.73;;
46755;SDS011;32506;52.826;-1.192;2022-08-05T01:04:38;2.33;;;0.50;;
46755;SDS011;32506;52.826;-1.192;2022-08-05T01:07:04;2.88;;;0.50;;
46755;SDS011;32506;52.826;-1.192;2022-08-05T01:09:30;2.08;;;0.60;;
46755;SDS011;32506;52.826;-1.192;2022-08-05T01:11:57;1.50;;;0.50;;
46755;SDS011;32506;52.826;-1.192;2022-08-05T01:17:30;2.28;;;0.40;;
46755;SDS011;32506;52.826;-1.192;2022-08-05T01:20:30;2.50;;;0.40;;
46755;SDS011;32506;52.826;-1.192;2022-08-05T01:25:45;0.98;;;0.40;;
46755;SDS011;32506;52.826;-1.192;2022-08-05T01:28:21;1.38;;;0.40;;
46755;SDS011;32506;52.826;-1.192;2022-08-05T01:31:00;3.85;;;0.50;;
46755;SDS011;32506;52.826;-1.192;2022-08-05T01:33:58;2.13;;;0.40;;
46755;SDS011;32506;52.826;-1.192;2022-08-05T01:36:48;0.30;;;0.30;;
46755;SDS011;32506;52.826;-1.192;2022-08-05T01:39:20;1.73;;;0.40;;
46755;SDS011;32506;52.826;-1.192;2022-08-05T01:41:47;0.30;;;0.22;;
46755;SDS011;32506;52.826;-1.192;2022-08-05T01:44:14;2.08;;;0.60;;
46755;SDS011;32506;52.826;-1.192;2022-08-05T01:46:42;1.10;;;0.30;;
46755;SDS011;32506;52.826;-1.192;2022-08-05T01:49:10;2.55;;;0.55;;
46755;SDS011;32506;52.826;-1.192;2022-08-05T01:51:38;1.52;;;0.20;;
46755;SDS011;32506;52.826;-1.192;2022-08-05T01:54:06;0.85;;;0.30;;
46755;SDS011;32506;52.826;-1.192;2022-08-05T01:56:36;1.33;;;0.40;;
46755;SDS011;32506;52.826;-1.192;2022-08-05T01:59:05;1.98;;;0.40;;
46755;SDS011;32506;52.826;-1.192;2022-08-05T02:01:33;1.15;;;0.40;;
46755;SDS011;32506;52.826;-1.192;2022-08-05T02:03:59;1.23;;;0.20;;
46755;SDS011;32506;52.826;-1.192;2022-08-05T02:06:26;1.27;;;0.38;;
46755;SDS011;32506;52.826;-1.192;2022-08-05T02:08:52;1.20;;;0.20;;
46755;SDS011;32506;52.826;-1.192;2022-08-05T02:11:18;2.38;;;0.47;;
46755;SDS011;32506;52.826;-1.192;2022-08-05T02:13:53;1.73;;;0.30;;
46755;SDS011;32506;52.826;-1.192;2022-08-05T02:16:38;0.73;;;0.20;;
46755;SDS011;32506;52.826;-1.192;2022-08-05T02:19:10;1.45;;;0.25;;
46755;SDS011;32506;52.826;-1.192;2022-08-05T02:21:43;1.45;;;0.40;;
46755;SDS011;32506;52.826;-1.192;2022-08-05T02:24:17;1.55;;;0.35;;
46755;SDS011;32506;52.826;-1.192;2022-08-05T02:26:48;2.20;;;0.45;;
46755;SDS011;32506;52.826;-1.192;2022-08-05T02:29:18;0.75;;;0.20;;
46755;SDS011;32506;52.826;-1.192;2022-08-05T02:31:46;1.60;;;0.50;;
46755;SDS011;32506;52.826;-1.192;2022-08-05T02:34:14;2.35;;;0.68;;
46755;SDS011;32506;52.826;-1.192;2022-08-05T02:36:47;0.57;;;0.20;;
46755;SDS011;32506;52.826;-1.192;2022-08-05T02:39:17;2.33;;;0.35;;
46755;SDS011;32506;52.826;-1.192;2022-08-05T02:41:44;2.03;;;0.38;;
46755;SDS011;32506;52.826;-1.192;2022-08-05T02:44:12;2.05;;;0.30;;
46755;SDS011;32506;52.826;-1.192;2022-08-05T02:46:38;1.00;;;0.28;;
46755;SDS011;32506;52.826;-1.192;2022-08-05T02:49:06;1.67;;;0.30;;
46755;SDS011;32506;52.826;-1.192;2022-08-05T02:51:35;1.85;;;0.50;;
46755;SDS011;32506;52.826;-1.192;2022-08-05T02:54:02;2.03;;;0.70;;
46755;SDS011;32506;52.826;-1.192;2022-08-05T02:56:29;3.88;;;0.45;;
46755;SDS011;32506;52.826;-1.192;2022-08-05T02:58:56;1.70;;;0.63;;
46755;SDS011;32506;52.826;-1.192;2022-08-05T03:01:24;1.40;;;0.38;;
46755;SDS011;32506;52.826;-1.192;2022-08-05T03:03:55;1.92;;;0.30;;
46755;SDS011;32506;52.826;-1.192;2022-08-05T03:06:24;2.42;;;0.77;;
46755;SDS011;32506;52.826;-1.192;2022-08-05T03:08:51;3.03;;;0.38;;
46755;SDS011;32506;52.826;-1.192;2022-08-05T03:11:24;1.73;;;0.40;;
46755;SDS011;32506;52.826;-1.192;2022-08-05T03:13:51;2.78;;;0.38;;
46755;SDS011;32506;52.826;-1.192;2022-08-05T03:16:17;0.85;;;0.30;;
46755;SDS011;32506;52.826;-1.192;2022-08-05T03:18:43;2.78;;;0.40;;
46755;SDS011;32506;52.826;-1.192;2022-08-05T03:21:10;1.17;;;0.38;;
46755;SDS011;32506;52.826;-1.192;2022-08-05T03:23:37;1.25;;;0.40;;
46755;SDS011;32506;52.826;-1.192;2022-08-05T03:26:05;1.02;;;0.30;;
46755;SDS011;32506;52.826;-1.192;2022-08-05T03:28:31;0.98;;;0.25;;
46755;SDS011;32506;52.826;-1.192;2022-08-05T03:30:57;1.63;;;0.60;;
46755;SDS011;32506;52.826;-1.192;2022-08-05T03:33:24;0.98;;;0.50;;
46755;SDS011;32506;52.826;-1.192;2022-08-05T03:35:52;1.20;;;0.30;;
46755;SDS011;32506;52.826;-1.192;2022-08-05T03:38:22;1.40;;;0.47;;
46755;SDS011;32506;52.826;-1.192;2022-08-05T03:40:49;2.17;;;0.50;;
46755;SDS011;32506;52.826;-1.192;2022-08-05T03:43:15;2.85;;;0.50;;
46755;SDS011;32506;52.826;-1.192;2022-08-05T03:45:41;1.80;;;0.63;;
46755;SDS011;32506;52.826;-1.192;2022-08-05T03:48:07;0.47;;;0.22;;
46755;SDS011;32506;52.826;-1.192;2022-08-05T03:50:43;1.00;;;0.22;;
46755;SDS011;32506;52.826;-1.192;2022-08-05T03:53:11;1.48;;;0.70;;
46755;SDS011;32506;52.826;-1.192;2022-08-05T03:55:41;1.88;;;0.52;;
46755;SDS011;32506;52.826;-1.192;2022-08-05T03:58:15;2.20;;;0.38;;
46755;SDS011;32506;52.826;-1.192;2022-08-05T04:00:43;2.10;;;0.43;;
46755;SDS011;32506;52.826;-1.192;2022-08-05T04:03:10;2.88;;;0.40;;
46755;SDS011;32506;52.826;-1.192;2022-08-05T04:05:37;1.10;;;0.40;;
46755;SDS011;32506;52.826;-1.192;2022-08-05T04:08:10;1.42;;;0.30;;
46755;SDS011;32506;52.826;-1.192;2022-08-05T04:10:37;1.27;;;0.60;;
46755;SDS011;32506;52.826;-1.192;2022-08-05T04:13:03;2.65;;;0.70;;
46755;SDS011;32506;52.826;-1.192;2022-08-05T04:15:31;2.67;;;0.40;;
46755;SDS011;32506;52.826;-1.192;2022-08-05T04:17:57;1.48;;;0.40;;
46755;SDS011;32506;52.826;-1.192;2022-08-05T04:20:27;1.25;;;0.60;;
46755;SDS011;32506;52.826;-1.192;2022-08-05T04:22:53;0.80;;;0.30;;
46755;SDS011;32506;52.826;-1.192;2022-08-05T04:25:19;2.67;;;0.50;;
46755;SDS011;32506;52.826;-1.192;2022-08-05T04:27:45;1.90;;;0.43;;
46755;SDS011;32506;52.826;-1.192;2022-08-05T04:30:10;1.75;;;0.47;;
46755;SDS011;32506;52.826;-1.192;2022-08-05T04:32:36;1.23;;;0.40;;
46755;SDS011;32506;52.826;-1.192;2022-08-05T04:35:02;1.75;;;0.40;;
46755;SDS011;32506;52.826;-1.192;2022-08-05T04:37:28;1.20;;;0.38;;
46755;SDS011;32506;52.826;-1.192;2022-08-05T04:39:54;1.05;;;0.30;;
46755;SDS011;32506;52.826;-1.192;2022-08-05T04:42:20;2.40;;;0.50;;
46755;SDS011;32506;52.826;-1.192;2022-08-05T04:44:45;2.30;;;0.40;;
46755;SDS011;32506;52.826;-1.192;2022-08-05T04:47:11;1.85;;;0.35;;
46755;SDS011;32506;52.826;-1.192;2022-08-05T04:49:37;1.73;;;0.47;;
46755;SDS011;32506;52.826;-1.192;2022-08-05T04:52:04;1.50;;;0.40;;
46755;SDS011;32506;52.826;-1.192;2022-08-05T04:54:29;2.38;;;0.50;;
46755;SDS011;32506;52.826;-1.192;2022-08-05T04:56:55;2.05;;;0.63;;
46755;SDS011;32506;52.826;-1.192;2022-08-05T04:59:21;2.55;;;0.60;;
46755;SDS011;32506;52.826;-1.192;2022-08-05T05:01:53;1.05;;;0.30;;
46755;SDS011;32506;52.826;-1.192;2022-08-05T05:04:18;2.60;;;0.45;;
46755;SDS011;32506;52.826;-1.192;2022-08-05T05:06:44;3.75;;;0.65;;
46755;SDS011;32506;52.826;-1.192;2022-08-05T05:09:10;1.63;;;0.43;;
46755;SDS011;32506;52.826;-1.192;2022-08-05T05:11:36;2.25;;;0.43;;
46755;SDS011;32506;52.826;-1.192;2022-08-05T05:14:01;2.22;;;0.68;;
46755;SDS011;32506;52.826;-1.192;2022-08-05T05:16:27;3.15;;;0.43;;
46755;SDS011;32506;52.826;-1.192;2022-08-05T05:18:53;2.45;;;0.88;;
46755;SDS011;32506;52.826;-1.192;2022-08-05T05:21:19;2.42;;;0.40;;
46755;SDS011;32506;52.826;-1.192;2022-08-05T05:23:44;2.42;;;0.63;;
46755;SDS011;32506;52.826;-1.192;2022-08-05T05:26:10;1.35;;;0.55;;
46755;SDS011;32506;52.826;-1.192;2022-08-05T05:28:36;2.70;;;0.50;;
46755;SDS011;32506;52.826;-1.192;2022-08-05T05:31:01;2.67;;;0.50;;
46755;SDS011;32506;52.826;-1.192;2022-08-05T05:33:27;2.17;;;0.50;;
46755;SDS011;32506;52.826;-1.192;2022-08-05T05:35:52;1.23;;;0.40;;
46755;SDS011;32506;52.826;-1.192;2022-08-05T05:38:18;2.25;;;0.57;;
46755;SDS011;32506;52.826;-1.192;2022-08-05T05:40:43;3.58;;;0.70;;
46755;SDS011;32506;52.826;-1.192;2022-08-05T05:43:10;1.85;;;0.40;;
46755;SDS011;32506;52.826;-1.192;2022-08-05T05:45:36;1.70;;;0.40;;
46755;SDS011;32506;52.826;-1.192;2022-08-05T05:48:01;1.73;;;0.50;;
46755;SDS011;32506;52.826;-1.192;2022-08-05T05:50:31;2.40;;;0.68;;
46755;SDS011;32506;52.826;-1.192;2022-08-05T05:52:56;2.00;;;0.50;;
46755;SDS011;32506;52.826;-1.192;2022-08-05T05:55:22;2.22;;;0.68;;
46755;SDS011;32506;52.826;-1.192;2022-08-05T05:57:47;3.38;;;0.47;;
46755;SDS011;32506;52.826;-1.192;2022-08-05T06:00:14;3.60;;;0.60;;
46755;SDS011;32506;52.826;-1.192;2022-08-05T06:02:42;2.90;;;0.82;;
46755;SDS011;32506;52.826;-1.192;2022-08-05T06:05:10;4.22;;;0.80;;
46755;SDS011;32506;52.826;-1.192;2022-08-05T06:07:37;3.10;;;0.50;;
46755;SDS011;32506;52.826;-1.192;2022-08-05T06:10:03;3.42;;;0.68;;
46755;SDS011;32506;52.826;-1.192;2022-08-05T06:12:30;2.53;;;0.65;;
46755;SDS011;32506;52.826;-1.192;2022-08-05T06:14:56;1.40;;;0.40;;
46755;SDS011;32506;52.826;-1.192;2022-08-05T06:17:21;2.70;;;0.90;;
46755;SDS011;32506;52.826;-1.192;2022-08-05T06:19:48;4.25;;;0.60;;
46755;SDS011;32506;52.826;-1.192;2022-08-05T06:22:20;2.80;;;0.70;;
46755;SDS011;32506;52.826;-1.192;2022-08-05T06:24:48;4.63;;;0.80;;
46755;SDS011;32506;52.826;-1.192;2022-08-05T06:27:14;3.08;;;1.02;;
46755;SDS011;32506;52.826;-1.192;2022-08-05T06:29:39;3.10;;;0.65;;
46755;SDS011;32506;52.826;-1.192;2022-08-05T06:32:05;6.13;;;1.10;;
46755;SDS011;32506;52.826;-1.192;2022-08-05T06:34:31;5.63;;;0.80;;
46755;SDS011;32506;52.826;-1.192;2022-08-05T06:36:57;2.00;;;0.63;;
46755;SDS011;32506;52.826;-1.192;2022-08-05T06:39:23;4.95;;;1.17;;
46755;SDS011;32506;52.826;-1.192;2022-08-05T06:41:49;2.60;;;0.80;;
46755;SDS011;32506;52.826;-1.192;2022-08-05T06:44:15;4.05;;;0.80;;
46755;SDS011;32506;52.826;-1.192;2022-08-05T06:46:40;5.00;;;0.80;;
46755;SDS011;32506;52.826;-1.192;2022-08-05T06:49:06;3.85;;;0.75;;
46755;SDS011;32506;52.826;-1.192;2022-08-05T06:51:31;4.10;;;0.70;;
46755;SDS011;32506;52.826;-1.192;2022-08-05T06:53:58;3.08;;;1.00;;
46755;SDS011;32506;52.826;-1.192;2022-08-05T06:56:24;2.35;;;0.60;;
46755;SDS011;32506;52.826;-1.192;2022-08-05T06:58:50;3.35;;;0.68;;
46755;SDS011;32506;52.826;-1.192;2022-08-05T07:01:16;3.90;;;1.15;;
46755;SDS011;32506;52.826;-1.192;2022-08-05T07:03:42;3.53;;;0.80;;
46755;SDS011;32506;52.826;-1.192;2022-08-05T07:06:07;3.40;;;0.68;;
46755;SDS011;32506;52.826;-1.192;2022-08-05T07:08:33;9.73;;;1.45;;
46755;SDS011;32506;52.826;-1.192;2022-08-05T07:10:59;2.28;;;0.47;;
46755;SDS011;32506;52.826;-1.192;2022-08-05T07:13:26;6.75;;;1.23;;
46755;SDS011;32506;52.826;-1.192;2022-08-05T07:16:18;5.15;;;0.82;;
46755;SDS011;32506;52.826;-1.192;2022-08-05T07:19:02;3.60;;;0.73;;
46755;SDS011;32506;52.826;-1.192;2022-08-05T07:21:29;4.35;;;0.85;;
46755;SDS011;32506;52.826;-1.192;2022-08-05T07:24:01;2.22;;;0.43;;
46755;SDS011;32506;52.826;-1.192;2022-08-05T07:26:42;5.88;;;0.90;;
46755;SDS011;32506;52.826;-1.192;2022-08-05T07:29:09;6.45;;;0.77;;
46755;SDS011;32506;52.826;-1.192;2022-08-05T07:31:36;2.35;;;0.63;;
46755;SDS011;32506;52.826;-1.192;2022-08-05T07:34:03;6.53;;;0.98;;
46755;SDS011;32506;52.826;-1.192;2022-08-05T07:36:29;3.20;;;0.60;;
46755;SDS011;32506;52.826;-1.192;2022-08-05T07:39:22;2.50;;;0.55;;
46755;SDS011;32506;52.826;-1.192;2022-08-05T07:41:51;2.28;;;0.60;;
46755;SDS011;32506;52.826;-1.192;2022-08-05T07:44:24;3.38;;;0.70;;
46755;SDS011;32506;52.826;-1.192;2022-08-05T07:47:21;3.75;;;0.70;;
46755;SDS011;32506;52.826;-1.192;2022-08-05T07:49:54;3.30;;;0.50;;
46755;SDS011;32506;52.826;-1.192;2022-08-05T07:53:21;2.65;;;0.60;;
46755;SDS011;32506;52.826;-1.192;2022-08-05T07:56:18;1.90;;;0.50;;
46755;SDS011;32506;52.826;-1.192;2022-08-05T07:59:10;1.83;;;0.55;;
46755;SDS011;32506;52.826;-1.192;2022-08-05T08:01:49;1.83;;;0.60;;
46755;SDS011;32506;52.826;-1.192;2022-08-05T08:04:41;1.98;;;0.85;;
46755;SDS011;32506;52.826;-1.192;2022-08-05T08:07:36;2.03;;;0.40;;
46755;SDS011;32506;52.826;-1.192;2022-08-05T08:10:28;1.50;;;0.47;;
46755;SDS011;32506;52.826;-1.192;2022-08-05T08:12:54;1.70;;;0.40;;
46755;SDS011;32506;52.826;-1.192;2022-08-05T08:15:29;1.83;;;0.20;;
46755;SDS011;32506;52.826;-1.192;2022-08-05T08:18:43;1.20;;;0.15;;
46755;SDS011;32506;52.826;-1.192;2022-08-05T08:21:42;1.67;;;0.40;;
46755;SDS011;32506;52.826;-1.192;2022-08-05T08:27:56;1.77;;;0.55;;
46755;SDS011;32506;52.826;-1.192;2022-08-05T08:42:01;1.83;;;0.30;;
46755;SDS011;32506;52.826;-1.192;2022-08-05T08:47:40;0.57;;;0.15;;
46755;SDS011;32506;52.826;-1.192;2022-08-05T08:50:45;1.25;;;0.20;;
46755;SDS011;32506;52.826;-1.192;2022-08-05T08:53:54;0.77;;;0.22;;
46755;SDS011;32506;52.826;-1.192;2022-08-05T09:02:37;1.77;;;0.40;;
46755;SDS011;32506;52.826;-1.192;2022-08-05T09:05:03;1.23;;;0.25;;
46755;SDS011;32506;52.826;-1.192;2022-08-05T09:07:32;2.88;;;0.30;;
46755;SDS011;32506;52.826;-1.192;2022-08-05T09:13:57;1.58;;;0.50;;
46755;SDS011;32506;52.826;-1.192;2022-08-05T09:17:08;1.50;;;0.30;;
46755;SDS011;32506;52.826;-1.192;2022-08-05T09:20:21;0.75;;;0.28;;
46755;SDS011;32506;52.826;-1.192;2022-08-05T09:36:50;1.75;;;0.25;;
46755;SDS011;32506;52.826;-1.192;2022-08-05T09:39:38;1.77;;;0.32;;
46755;SDS011;32506;52.826;-1.192;2022-08-05T09:42:05;3.03;;;0.50;;
46755;SDS011;32506;52.826;-1.192;2022-08-05T09:44:38;1.58;;;0.30;;
46755;SDS011;32506;52.826;-1.192;2022-08-05T09:47:14;1.65;;;0.35;;
46755;SDS011;32506;52.826;-1.192;2022-08-05T09:49:51;1.13;;;0.35;;
46755;SDS011;32506;52.826;-1.192;2022-08-05T09:55:02;2.65;;;0.40;;
46755;SDS011;32506;52.826;-1.192;2022-08-05T09:59:58;1.67;;;0.35;;
46755;SDS011;32506;52.826;-1.192;2022-08-05T10:08:09;1.20;;;0.50;;
46755;SDS011;32506;52.826;-1.192;2022-08-05T10:10:37;0.80;;;0.45;;
46755;SDS011;32506;52.826;-1.192;2022-08-05T10:13:10;2.15;;;0.80;;
46755;SDS011;32506;52.826;-1.192;2022-08-05T10:15:53;2.40;;;1.02;;
46755;SDS011;32506;52.826;-1.192;2022-08-05T10:22:09;1.92;;;1.05;;
46755;SDS011;32506;52.826;-1.192;2022-08-05T10:24:38;2.30;;;1.20;;
46755;SDS011;32506;52.826;-1.192;2022-08-05T10:28:15;4.07;;;1.70;;
46755;SDS011;32506;52.826;-1.192;2022-08-05T10:38:09;2.80;;;0.90;;
46755;SDS011;32506;52.826;-1.192;2022-08-05T10:45:00;2.80;;;1.00;;
46755;SDS011;32506;52.826;-1.192;2022-08-05T10:48:40;2.10;;;0.90;;
46755;SDS011;32506;52.826;-1.192;2022-08-05T10:55:04;2.22;;;0.60;;
46755;SDS011;32506;52.826;-1.192;2022-08-05T11:01:34;2.08;;;0.63;;
46755;SDS011;32506;52.826;-1.192;2022-08-05T11:05:17;3.42;;;0.60;;
46755;SDS011;32506;52.826;-1.192;2022-08-05T11:09:09;1.40;;;0.40;;
46755;SDS011;32506;52.826;-1.192;2022-08-05T11:18:47;0.68;;;0.17;;
46755;SDS011;32506;52.826;-1.192;2022-08-05T11:21:30;1.45;;;0.20;;
46755;SDS011;32506;52.826;-1.192;2022-08-05T11:28:53;0.93;;;0.22;;
46755;SDS011;32506;52.826;-1.192;2022-08-05T11:35:53;1.77;;;0.30;;
46755;SDS011;32506;52.826;-1.192;2022-08-05T11:39:45;2.90;;;0.40;;
46755;SDS011;32506;52.826;-1.192;2022-08-05T11:57:25;3.05;;;0.20;;
46755;SDS011;32506;52.826;-1.192;2022-08-05T12:04:35;1.77;;;0.50;;
46755;SDS011;32506;52.826;-1.192;2022-08-05T12:22:24;1.60;;;0.30;;
46755;SDS011;32506;52.826;-1.192;2022-08-05T12:39:23;1.08;;;0.20;;
46755;SDS011;32506;52.826;-1.192;2022-08-05T13:03:26;1.33;;;0.30;;
46755;SDS011;32506;52.826;-1.192;2022-08-05T13:06:58;1.42;;;0.50;;
46755;SDS011;32506;52.826;-1.192;2022-08-05T13:10:25;1.67;;;0.63;;
46755;SDS011;32506;52.826;-1.192;2022-08-05T13:13:55;1.30;;;0.40;;
46755;SDS011;32506;52.826;-1.192;2022-08-05T13:17:36;2.47;;;0.57;;
46755;SDS011;32506;52.826;-1.192;2022-08-05T13:24:05;1.67;;;0.45;;
46755;SDS011;32506;52.826;-1.192;2022-08-05T13:27:00;4.07;;;0.73;;
46755;SDS011;32506;52.826;-1.192;2022-08-05T13:29:26;5.97;;;0.90;;
46755;SDS011;32506;52.826;-1.192;2022-08-05T13:32:00;3.63;;;0.90;;
46755;SDS011;32506;52.826;-1.192;2022-08-05T13:34:33;2.78;;;0.55;;
46755;SDS011;32506;52.826;-1.192;2022-08-05T13:37:18;3.28;;;0.50;;
46755;SDS011;32506;52.826;-1.192;2022-08-05T13:39:48;4.13;;;0.60;;
46755;SDS011;32506;52.826;-1.192;2022-08-05T13:42:18;2.05;;;0.65;;
46755;SDS011;32506;52.826;-1.192;2022-08-05T13:44:45;1.42;;;0.38;;
46755;SDS011;32506;52.826;-1.192;2022-08-05T13:47:14;1.88;;;0.60;;
46755;SDS011;32506;52.826;-1.192;2022-08-05T13:49:40;1.92;;;0.60;;
46755;SDS011;32506;52.826;-1.192;2022-08-05T13:52:13;5.47;;;1.15;;
46755;SDS011;32506;52.826;-1.192;2022-08-05T13:55:06;2.10;;;0.60;;
46755;SDS011;32506;52.826;-1.192;2022-08-05T13:57:32;1.33;;;0.50;;
46755;SDS011;32506;52.826;-1.192;2022-08-05T13:59:58;2.10;;;0.50;;
46755;SDS011;32506;52.826;-1.192;2022-08-05T14:02:24;2.00;;;0.45;;
46755;SDS011;32506;52.826;-1.192;2022-08-05T14:04:50;1.33;;;0.52;;
46755;SDS011;32506;52.826;-1.192;2022-08-05T14:07:43;1.92;;;0.90;;
46755;SDS011;32506;52.826;-1.192;2022-08-05T14:10:13;1.92;;;0.85;;
46755;SDS011;32506;52.826;-1.192;2022-08-05T14:12:40;2.83;;;1.50;;
46755;SDS011;32506;52.826;-1.192;2022-08-05T14:15:07;2.33;;;1.30;;
46755;SDS011;32506;52.826;-1.192;2022-08-05T14:17:35;2.47;;;1.10;;
46755;SDS011;32506;52.826;-1.192;2022-08-05T14:20:01;2.97;;;1.55;;
46755;SDS011;32506;52.826;-1.192;2022-08-05T14:22:28;2.47;;;1.20;;
46755;SDS011;32506;52.826;-1.192;2022-08-05T14:24:56;1.70;;;1.10;;
46755;SDS011;32506;52.826;-1.192;2022-08-05T14:27:22;1.85;;;1.00;;
46755;SDS011;32506;52.826;-1.192;2022-08-05T14:29:50;2.80;;;0.93;;
46755;SDS011;32506;52.826;-1.192;2022-08-05T14:32:16;2.03;;;0.88;;
46755;SDS011;32506;52.826;-1.192;2022-08-05T14:34:42;1.60;;;0.63;;
46755;SDS011;32506;52.826;-1.192;2022-08-05T14:37:11;2.60;;;0.50;;
46755;SDS011;32506;52.826;-1.192;2022-08-05T14:39:37;1.58;;;0.90;;
46755;SDS011;32506;52.826;-1.192;2022-08-05T14:42:03;1.15;;;0.40;;
46755;SDS011;32506;52.826;-1.192;2022-08-05T14:44:48;2.42;;;0.60;;
46755;SDS011;32506;52.826;-1.192;2022-08-05T14:47:20;1.27;;;0.70;;
46755;SDS011;32506;52.826;-1.192;2022-08-05T14:49:46;2.17;;;1.00;;
46755;SDS011;32506;52.826;-1.192;2022-08-05T14:52:12;2.30;;;1.00;;
46755;SDS011;32506;52.826;-1.192;2022-08-05T14:54:41;1.75;;;0.68;;
46755;SDS011;32506;52.826;-1.192;2022-08-05T14:57:12;4.32;;;0.73;;
46755;SDS011;32506;52.826;-1.192;2022-08-05T14:59:40;2.00;;;0.60;;
46755;SDS011;32506;52.826;-1.192;2022-08-05T15:02:06;3.58;;;0.73;;
46755;SDS011;32506;52.826;-1.192;2022-08-05T15:04:48;2.53;;;0.68;;
46755;SDS011;32506;52.826;-1.192;2022-08-05T15:09:49;4.00;;;0.70;;
46755;SDS011;32506;52.826;-1.192;2022-08-05T15:12:33;3.83;;;1.10;;
46755;SDS011;32506;52.826;-1.192;2022-08-05T15:15:16;2.50;;;1.02;;
46755;SDS011;32506;52.826;-1.192;2022-08-05T15:17:57;1.60;;;0.80;;
46755;SDS011;32506;52.826;-1.192;2022-08-05T15:26:46;2.38;;;0.82;;
46755;SDS011;32506;52.826;-1.192;2022-08-05T15:29:18;1.42;;;0.60;;
46755;SDS011;32506;52.826;-1.192;2022-08-05T15:31:54;2.65;;;0.40;;
46755;SDS011;32506;52.826;-1.192;2022-08-05T15:34:20;2.17;;;0.47;;
46755;SDS011;32506;52.826;-1.192;2022-08-05T15:36:46;1.50;;;0.40;;
46755;SDS011;32506;52.826;-1.192;2022-08-05T15:39:13;2.33;;;0.40;;
46755;SDS011;32506;52.826;-1.192;2022-08-05T15:45:06;1.73;;;0.30;;
46755;SDS011;32506;52.826;-1.192;2022-08-05T15:47:55;3.30;;;0.60;;
46755;SDS011;32506;52.826;-1.192;2022-08-05T15:50:35;1.60;;;0.32;;
46755;SDS011;32506;52.826;-1.192;2022-08-05T15:53:18;3.15;;;0.45;;
46755;SDS011;32506;52.826;-1.192;2022-08-05T15:56:02;1.77;;;0.43;;
46755;SDS011;32506;52.826;-1.192;2022-08-05T15:58:29;2.20;;;0.85;;
46755;SDS011;32506;52.826;-1.192;2022-08-05T16:00:58;1.38;;;0.30;;
46755;SDS011;32506;52.826;-1.192;2022-08-05T16:03:26;1.55;;;0.30;;
46755;SDS011;32506;52.826;-1.192;2022-08-05T16:06:01;1.50;;;0.30;;
46755;SDS011;32506;52.826;-1.192;2022-08-05T16:08:27;2.08;;;0.30;;
46755;SDS011;32506;52.826;-1.192;2022-08-05T16:10:59;0.57;;;0.10;;
46755;SDS011;32506;52.826;-1.192;2022-08-05T16:13:29;0.85;;;0.20;;
46755;SDS011;32506;52.826;-1.192;2022-08-05T16:15:55;3.45;;;0.40;;
46755;SDS011;32506;52.826;-1.192;2022-08-05T16:18:21;1.30;;;0.20;;
46755;SDS011;32506;52.826;-1.192;2022-08-05T16:20:48;1.42;;;0.20;;
46755;SDS011;32506;52.826;-1.192;2022-08-05T16:23:13;1.42;;;0.22;;
46755;SDS011;32506;52.826;-1.192;2022-08-05T16:25:39;0.75;;;0.20;;
46755;SDS011;32506;52.826;-1.192;2022-08-05T16:28:06;1.02;;;0.20;;
46755;SDS011;32506;52.826;-1.192;2022-08-05T16:30:32;1.55;;;0.47;;
46755;SDS011;32506;52.826;-1.192;2022-08-05T16:33:03;1.00;;;0.17;;
46755;SDS011;32506;52.826;-1.192;2022-08-05T16:39:04;1.30;;;0.25;;
46755;SDS011;32506;52.826;-1.192;2022-08-05T16:45:38;1.52;;;0.30;;
46755;SDS011;32506;52.826;-1.192;2022-08-05T16:48:06;1.63;;;0.30;;
46755;SDS011;32506;52.826;-1.192;2022-08-05T16:50:31;1.77;;;0.20;;
46755;SDS011;32506;52.826;-1.192;2022-08-05T16:52:57;1.88;;;0.30;;
46755;SDS011;32506;52.826;-1.192;2022-08-05T16:55:24;2.28;;;0.40;;
46755;SDS011;32506;52.826;-1.192;2022-08-05T16:57:51;1.67;;;0.40;;
46755;SDS011;32506;52.826;-1.192;2022-08-05T17:00:17;3.13;;;0.30;;
46755;SDS011;32506;52.826;-1.192;2022-08-05T17:02:42;2.25;;;0.35;;
46755;SDS011;32506;52.826;-1.192;2022-08-05T17:05:18;2.33;;;0.50;;
46755;SDS011;32506;52.826;-1.192;2022-08-05T17:10:44;3.53;;;0.45;;
46755;SDS011;32506;52.826;-1.192;2022-08-05T17:14:13;3.17;;;0.30;;
46755;SDS011;32506;52.826;-1.192;2022-08-05T17:20:25;1.92;;;0.30;;
46755;SDS011;32506;52.826;-1.192;2022-08-05T17:23:42;1.08;;;0.20;;
46755;SDS011;32506;52.826;-1.192;2022-08-05T17:26:10;1.42;;;0.28;;
46755;SDS011;32506;52.826;-1.192;2022-08-05T17:29:21;1.00;;;0.20;;
46755;SDS011;32506;52.826;-1.192;2022-08-05T17:31:58;1.33;;;0.30;;
46755;SDS011;32506;52.826;-1.192;2022-08-05T17:38:08;2.78;;;0.30;;
46755;SDS011;32506;52.826;-1.192;2022-08-05T17:41:17;0.85;;;0.20;;
46755;SDS011;32506;52.826;-1.192;2022-08-05T17:43:52;1.23;;;0.30;;
46755;SDS011;32506;52.826;-1.192;2022-08-05T17:47:03;0.75;;;0.20;;
46755;SDS011;32506;52.826;-1.192;2022-08-05T17:49:33;1.17;;;0.30;;
46755;SDS011;32506;52.826;-1.192;2022-08-05T17:52:48;1.48;;;0.20;;
46755;SDS011;32506;52.826;-1.192;2022-08-05T17:56:06;1.58;;;0.25;;
46755;SDS011;32506;52.826;-1.192;2022-08-05T17:58:45;2.45;;;0.30;;
46755;SDS011;32506;52.826;-1.192;2022-08-05T18:04:56;0.98;;;0.20;;
46755;SDS011;32506;52.826;-1.192;2022-08-05T18:07:39;1.02;;;0.10;;
46755;SDS011;32506;52.826;-1.192;2022-08-05T18:14:12;2.42;;;0.20;;
46755;SDS011;32506;52.826;-1.192;2022-08-05T18:16:41;1.33;;;0.30;;
46755;SDS011;32506;52.826;-1.192;2022-08-05T18:19:07;0.60;;;0.20;;
46755;SDS011;32506;52.826;-1.192;2022-08-05T18:21:53;0.52;;;0.08;;
46755;SDS011;32506;52.826;-1.192;2022-08-05T18:24:19;1.38;;;0.13;;
46755;SDS011;32506;52.826;-1.192;2022-08-05T18:26:47;0.90;;;0.10;;
46755;SDS011;32506;52.826;-1.192;2022-08-05T18:29:16;1.35;;;0.20;;
46755;SDS011;32506;52.826;-1.192;2022-08-05T18:39:11;0.73;;;0.10;;
46755;SDS011;32506;52.826;-1.192;2022-08-05T18:45:24;1.10;;;0.13;;
46755;SDS011;32506;52.826;-1.192;2022-08-05T18:58:15;1.95;;;0.28;;
46755;SDS011;32506;52.826;-1.192;2022-08-05T19:15:07;2.22;;;0.30;;
46755;SDS011;32506;52.826;-1.192;2022-08-05T19:18:16;1.65;;;0.35;;